< < Back
Terminal Aerodrome Forecast


Current Version              Previous Versions:   1  2  3  4  5  6  7  8  9  

Terminal Aerodrome Forecast

261
FTUS44 KMRX 311131
TAFCHA
TAF
KCHA 311131Z 3112/0112 VRB02KT P6SM SCT250
     FM311500 01006KT P6SM SCT045 BKN200
     FM010100 VRB02KT P6SM SCT070 BKN250=



Latest METAR

132
SAUS80 KWBC 311100
MTRCHA
METAR KCHA 311053Z 00000KT 10SM FEW070 SCT250 BKN300 19/17 A2997 RMK AO2
SLP141 T01890172 $


USA.gov is the U.S. government's official web portal to all federal, state and local government web resources and services.